Bienvenue à Ascain au Pied de la montagne de La Rhune





Visitez nos autres sites:

Radar Aviation Bordeaux

La Station sur le réseau APRS



Pas de vigilance météorologique particulière.    Il n'y a aucun avertissement

Rapports METAR proximité

   
EBBR - Brussels International Airport, Belgium
Distance: O 14 km
Mise à jour: 20-11-2017 08:20
Pluie faible, Partiellement nuageux  
Pluie faible, Partiellement nuageux  
   Vent: SSO 11.1 km/h
Vent: SSO 11.1 km/h
Température: 4°C
éolien: 1°C
Point de rosée: 1°C
Humidité: 81%
Baromètre: 1020 hPa
Nuages: Partiellement nuageux
visibilité: Plus 10 km
Détails des nuages: Partiellement nuageux 3800 ft
EBBR 200720Z 20006KT 9999 -RA SCT038 04/01 Q1020 NOSIG
EBBE - Beauvechain (Bevekom), Belgium
Distance: SSE 17 km
Mise à jour: 20-11-2017 08:25
Nuageux  
Nuageux  
   Vent: SSO 13 km/h
Vent: SSO 13 km/h
Température: 3°C
éolien: -1°C
Point de rosée: 1°C
Humidité: 87%
Baromètre: 1021 hPa
Nuages: Nuageux
visibilité: Plus 10 km
Détails des nuages: Peu de nuages 5000 ft,
Nuageux 7000 ft
EBBE 200725Z 20007KT 9999 FEW050 BKN070 03/01 Q1021 BLU BLU
EBDT - Schaffen, Belgium
Distance: ENE 29 km
Mise à jour: 20-11-2017 08:25
Nuageux  
Nuageux  
   Vent: SSO 7.4 km/h
Vent: SSO 7.4 km/h
Température: 4°C
éolien: 2°C
Point de rosée: 2°C
Humidité: 87%
Baromètre: 1021 hPa
Nuages: Nuageux
visibilité: Plus 10 km
Détails des nuages: Partiellement nuageux 5000 ft,
Nuageux 7000 ft
EBDT 200725Z 20004KT 9999 SCT050 BKN070 04/02 Q1021 BLU BLU
EBAW - Antwerp/Deurne, Belgium
Distance: NNO 38 km
Mise à jour: 20-11-2017 08:20
Pluie faible, Peu de nuages  
Pluie faible, Peu de nuages  
   Vent: Sud 11.1 km/h
Vent: Sud 11.1 km/h
Température: 4°C
éolien: 1°C
Point de rosée: 2°C
Humidité: 87%
Baromètre: 1020 hPa
Nuages: Peu de nuages
visibilité: Plus 10 km
Détails des nuages: Peu de nuages 3000 ft
EBAW 200720Z 19006KT 9999 -RA FEW030 04/02 Q1020 NOSIG
EBCI - Charleroi/Gosselies, Belgium
Distance: SSO 51 km
Mise à jour: 20-11-2017 08:20
Claires  
Claires  
   Vent: SSO 16.7 km/h
Vent: SSO 16.7 km/h
Température: 3°C
éolien: -1°C
Point de rosée: 1°C
Humidité: 87%
Baromètre: 1021 hPa
visibilité: Plus 10 km
Détails des nuages: Claires
EBCI 200720Z 21009KT CAVOK 03/01 Q1021 NOSIG
EBLG - Bierset/Liege, Belgium
Distance: ESE 60 km
Mise à jour: 20-11-2017 08:20
Peu de nuages  
Peu de nuages  
   Vent: SSO 14.8 km/h
Vent: SSO 14.8 km/h
Température: 3°C
éolien: -1°C
Point de rosée: 0°C
Humidité: 81%
Baromètre: 1021 hPa
Nuages: Peu de nuages
visibilité: Plus 10 km
Détails des nuages: Peu de nuages 4000 ft
EBLG 200720Z 20008KT 9999 FEW040 03/M00 Q1021 NOSIG

Script développé par  Saratoga-weather.org Adapté pour le modèle par  Weerstation Leuven

Vous trouverez notre info météo Également à:

Weather Underground

AWEKAS

Citizen Weather Observer Program (CWOP)

HAMweather, WeatherForYou, PWS Weather